Time;durP1;ratioP1;P1;durP2;ratioP2;P2;SDS_P1;SDS_P2;PMS_P1;PMS_P2;Temp;Humidity;BMP_temperature;BMP_pressure;BME280_temperature;BME280_humidity;BME280_pressure;Samples;Min_cycle;Max_cycle;Signal;HPM_P1;HPM_P2
2022/02/20 00:00:42;;;;;;;9.48;3.50;;;3.90;99.90;;;;;;5030440;28;20064;-53
2022/02/20 00:03:08;;;;;;;11.98;3.17;;;3.90;99.90;;;;;;5011468;28;20547;-49
2022/02/20 00:05:33;;;;;;;16.02;4.28;;;3.90;99.90;;;;;;5029013;28;20037;-60
2022/02/20 00:07:59;;;;;;;5.80;2.10;;;3.90;99.90;;;;;;5012855;28;20111;-53
2022/02/20 00:10:25;;;;;;;2.63;1.48;;;3.90;99.90;;;;;;5038975;28;20048;-51
2022/02/20 00:12:51;;;;;;;2.60;1.40;;;3.80;99.90;;;;;;5047870;28;20052;-56
2022/02/20 00:15:16;;;;;;;2.50;1.40;;;3.70;99.90;;;;;;5028349;28;20076;-59
2022/02/20 00:17:43;;;;;;;1.27;1.10;;;3.60;99.90;;;;;;5029411;28;20045;-59
2022/02/20 00:20:09;;;;;;;2.55;1.70;;;3.60;99.90;;;;;;5046979;28;20063;-56
2022/02/20 00:22:35;;;;;;;1.35;0.90;;;3.50;99.90;;;;;;5029747;28;20131;-55
2022/02/20 00:25:01;;;;;;;2.00;1.20;;;3.40;99.90;;;;;;5047008;28;20049;-55
2022/02/20 00:27:27;;;;;;;1.15;1.15;;;3.40;99.90;;;;;;5029096;28;20049;-53
2022/02/20 00:29:54;;;;;;;4.03;1.30;;;3.40;99.90;;;;;;5009554;28;20049;-54
2022/02/20 00:32:19;;;;;;;2.00;1.30;;;3.30;99.90;;;;;;5021400;28;20138;-60
2022/02/20 00:34:45;;;;;;;3.25;1.20;;;3.30;99.90;;;;;;5012842;28;20166;-62
2022/02/20 00:37:12;;;;;;;1.98;1.40;;;3.20;99.90;;;;;;5046491;28;20041;-54
2022/02/20 00:39:37;;;;;;;3.78;1.63;;;3.20;99.90;;;;;;5045758;28;20519;-65
2022/02/20 00:42:03;;;;;;;3.10;2.80;;;3.30;99.90;;;;;;5046848;28;20052;-57
2022/02/20 00:44:29;;;;;;;2.72;2.53;;;3.30;99.90;;;;;;5046863;28;20531;-62
2022/02/20 00:46:55;;;;;;;5.05;1.85;;;3.40;99.90;;;;;;5012314;28;20049;-56
2022/02/20 00:49:21;;;;;;;2.03;1.92;;;3.40;99.90;;;;;;5045592;28;20049;-55
2022/02/20 00:51:46;;;;;;;2.72;2.63;;;3.40;99.90;;;;;;5029189;28;20135;-54
2022/02/20 00:54:12;;;;;;;3.70;2.70;;;3.50;99.90;;;;;;5011971;28;20041;-55
2022/02/20 00:56:38;;;;;;;2.60;2.30;;;3.50;99.90;;;;;;5028698;28;20057;-53
2022/02/20 00:59:04;;;;;;;3.55;1.80;;;3.60;99.90;;;;;;5045961;28;20080;-63
2022/02/20 01:01:31;;;;;;;1.45;1.40;;;3.60;99.90;;;;;;5022506;28;20060;-61
2022/02/20 01:03:57;;;;;;;2.75;1.00;;;3.60;99.90;;;;;;5026510;28;20037;-51
2022/02/20 01:06:26;;;;;;;2.20;1.33;;;3.60;99.90;;;;;;5026117;28;20190;-64
2022/02/20 01:08:53;;;;;;;0.90;0.90;;;3.60;99.90;;;;;;5028774;28;20056;-55
2022/02/20 01:11:19;;;;;;;1.60;1.13;;;3.60;99.90;;;;;;5041762;28;20128;-64
2022/02/20 01:13:46;;;;;;;4.10;1.05;;;3.50;99.90;;;;;;5025492;28;20033;-57
2022/02/20 01:16:12;;;;;;;5.40;1.50;;;3.50;99.90;;;;;;5023998;28;20045;-51
2022/02/20 01:18:40;;;;;;;15.75;6.43;;;3.50;99.90;;;;;;5037195;28;20502;-60
2022/02/20 01:21:05;;;;;;;9.48;4.30;;;3.50;99.90;;;;;;5016968;28;20601;-56
2022/02/20 01:23:31;;;;;;;11.98;4.85;;;3.50;99.90;;;;;;5045991;28;20115;-60
2022/02/20 01:25:57;;;;;;;7.00;3.97;;;3.50;99.90;;;;;;5028558;28;20106;-60
2022/02/20 01:28:23;;;;;;;13.55;5.50;;;3.50;99.90;;;;;;5027221;28;20073;-57
2022/02/20 01:30:49;;;;;;;5.03;3.78;;;3.60;99.90;;;;;;5028241;28;20037;-54
2022/02/20 01:33:15;;;;;;;4.70;3.90;;;3.60;99.90;;;;;;5045277;28;20116;-62
2022/02/20 01:35:41;;;;;;;5.60;3.20;;;3.60;99.90;;;;;;5028420;28;20037;-55
2022/02/20 01:38:06;;;;;;;8.20;4.10;;;3.70;99.90;;;;;;5027802;28;20060;-57
2022/02/20 01:40:33;;;;;;;6.45;3.45;;;3.70;99.90;;;;;;5028260;28;20029;-54
2022/02/20 01:42:59;;;;;;;2.72;1.92;;;3.70;99.90;;;;;;5045995;28;20099;-55
2022/02/20 01:45:25;;;;;;;2.92;2.13;;;3.70;99.90;;;;;;5045263;28;20067;-52
2022/02/20 01:47:51;;;;;;;7.60;3.13;;;3.70;99.90;;;;;;5046562;28;20371;-55
2022/02/20 01:50:17;;;;;;;5.60;2.47;;;3.80;99.90;;;;;;5045504;28;20398;-51
2022/02/20 01:52:44;;;;;;;3.22;2.22;;;3.80;99.90;;;;;;5024635;28;20100;-63
2022/02/20 01:55:10;;;;;;;6.05;2.47;;;3.80;99.90;;;;;;5022234;28;20049;-54
2022/02/20 01:57:37;;;;;;;6.80;2.30;;;3.80;99.90;;;;;;5028024;28;20051;-59
2022/02/20 02:00:07;;;;;;;3.38;2.03;;;3.80;99.90;;;;;;5045914;28;20395;-52
2022/02/20 02:02:32;;;;;;;2.70;1.57;;;3.80;99.90;;;;;;5044750;28;20083;-58
2022/02/20 02:04:58;;;;;;;5.32;1.90;;;3.80;99.90;;;;;;5046193;28;20068;-63
2022/02/20 02:07:26;;;;;;;4.32;2.10;;;3.80;99.90;;;;;;5010310;28;20367;-56
2022/02/20 02:09:52;;;;;;;9.45;3.13;;;3.90;99.90;;;;;;5019287;28;20060;-66
2022/02/20 02:12:17;;;;;;;4.15;1.95;;;3.90;99.90;;;;;;5003680;28;20064;-57
2022/02/20 02:15:07;;;;;;;3.08;1.70;;;3.90;99.90;;;;;;5045387;28;20406;-55
2022/02/20 02:17:33;;;;;;;4.68;2.10;;;3.90;99.90;;;;;;5044892;28;20503;-47
2022/02/20 02:19:59;;;;;;;3.33;1.55;;;3.90;99.90;;;;;;5045297;28;20045;-61
2022/02/20 02:22:28;;;;;;;1.20;1.20;;;4.00;99.90;;;;;;5045584;28;20037;-54
2022/02/20 02:24:55;;;;;;;3.80;1.55;;;3.90;99.90;;;;;;5026799;28;20332;-51
2022/02/20 02:27:23;;;;;;;2.22;1.67;;;4.00;99.90;;;;;;5014957;28;20079;-54
2022/02/20 02:29:49;;;;;;;1.48;1.38;;;4.00;99.90;;;;;;5048624;28;20098;-51
2022/02/20 02:32:16;;;;;;;2.63;1.27;;;4.00;99.90;;;;;;5031208;28;20111;-59
2022/02/20 02:34:43;;;;;;;2.60;1.75;;;4.00;99.90;;;;;;5030516;28;20282;-52
2022/02/20 02:37:10;;;;;;;7.63;1.33;;;4.00;99.90;;;;;;5049025;28;20045;-49
2022/02/20 02:39:36;;;;;;;1.40;1.40;;;4.00;99.90;;;;;;5031050;28;20041;-55
2022/02/20 02:42:03;;;;;;;1.95;1.83;;;3.90;99.90;;;;;;5048358;28;20052;-62
2022/02/20 02:44:30;;;;;;;1.05;0.80;;;3.80;99.90;;;;;;5030926;28;20502;-60
2022/02/20 02:46:55;;;;;;;1.05;1.00;;;3.80;99.90;;;;;;5039857;28;20045;-59
2022/02/20 02:49:21;;;;;;;2.10;1.60;;;3.80;99.90;;;;;;5031832;28;20099;-58
2022/02/20 02:51:47;;;;;;;2.90;1.42;;;3.80;99.90;;;;;;5030102;28;20044;-53
2022/02/20 02:54:23;;;;;;;5.35;1.65;;;3.80;99.90;;;;;;5049470;28;20132;-54
2022/02/20 02:56:49;;;;;;;7.22;1.60;;;3.70;99.90;;;;;;5031866;28;20394;-58
2022/02/20 02:59:16;;;;;;;1.63;1.52;;;3.70;99.90;;;;;;5029172;28;20045;-55
2022/02/20 03:01:43;;;;;;;1.67;1.52;;;3.60;99.90;;;;;;5048657;28;20470;-62
2022/02/20 03:04:09;;;;;;;1.70;1.60;;;3.70;99.90;;;;;;5013934;28;20365;-52
2022/02/20 03:06:35;;;;;;;2.17;1.42;;;3.60;99.90;;;;;;5049022;28;20048;-59
2022/02/20 03:09:04;;;;;;;5.38;1.25;;;3.50;99.90;;;;;;5027717;28;20056;-57
2022/02/20 03:11:30;;;;;;;1.77;1.67;;;3.50;99.90;;;;;;5019011;28;20037;-55
2022/02/20 03:13:56;;;;;;;4.18;1.15;;;3.50;99.90;;;;;;5030710;28;20452;-51
2022/02/20 03:16:23;;;;;;;1.13;1.10;;;3.50;99.90;;;;;;5048459;28;20040;-48
2022/02/20 03:18:48;;;;;;;2.15;0.95;;;3.50;99.90;;;;;;5030435;28;20056;-57
2022/02/20 03:21:14;;;;;;;2.08;1.10;;;3.60;99.90;;;;;;5047613;28;20449;-63
2022/02/20 03:23:40;;;;;;;1.77;1.17;;;3.50;99.90;;;;;;5030557;28;20041;-62
2022/02/20 03:26:06;;;;;;;2.15;0.82;;;3.60;99.90;;;;;;5029996;28;20514;-58
2022/02/20 03:28:31;;;;;;;0.77;0.77;;;3.60;99.90;;;;;;5030148;28;20045;-58
2022/02/20 03:30:57;;;;;;;1.50;1.05;;;3.50;99.90;;;;;;5048170;28;20051;-50
2022/02/20 03:33:25;;;;;;;1.77;0.82;;;3.50;99.90;;;;;;5048268;28;20033;-59
2022/02/20 03:35:51;;;;;;;0.57;0.57;;;3.50;99.90;;;;;;5030772;28;20045;-63
2022/02/20 03:38:17;;;;;;;3.55;1.00;;;3.50;99.90;;;;;;5047171;28;20029;-52
2022/02/20 03:40:43;;;;;;;1.67;0.80;;;3.50;99.90;;;;;;5048128;28;20086;-54
2022/02/20 03:43:09;;;;;;;1.00;1.00;;;3.50;99.90;;;;;;5029523;28;20496;-59
2022/02/20 03:45:34;;;;;;;1.10;1.10;;;3.50;99.90;;;;;;5029969;28;20053;-59
2022/02/20 03:48:00;;;;;;;4.22;1.45;;;3.40;99.90;;;;;;5029571;28;20041;-61
2022/02/20 03:50:26;;;;;;;3.90;1.45;;;3.40;99.90;;;;;;5047921;28;20049;-62
2022/02/20 03:52:52;;;;;;;2.90;1.50;;;3.30;99.90;;;;;;5047727;28;20093;-52
2022/02/20 03:55:18;;;;;;;1.20;1.10;;;3.30;99.90;;;;;;5047466;28;20053;-64
2022/02/20 03:57:45;;;;;;;2.25;1.48;;;3.20;99.90;;;;;;5047814;28;20044;-54
2022/02/20 04:00:17;;;;;;;1.77;1.67;;;3.20;99.90;;;;;;5046945;28;20041;-55
2022/02/20 04:02:43;;;;;;;2.90;1.45;;;3.10;99.90;;;;;;5029786;28;20098;-56
2022/02/20 04:05:11;;;;;;;4.40;1.48;;;3.10;99.90;;;;;;5047615;28;20041;-53
2022/02/20 04:07:37;;;;;;;2.20;1.75;;;3.10;99.90;;;;;;5029781;28;20402;-60
2022/02/20 04:10:06;;;;;;;1.85;1.60;;;3.00;99.90;;;;;;5037761;28;20052;-53
2022/02/20 04:12:32;;;;;;;4.35;1.75;;;3.10;99.90;;;;;;5025575;28;20053;-51
2022/02/20 04:14:58;;;;;;;1.63;1.52;;;3.10;99.90;;;;;;5013420;28;20115;-64
2022/02/20 04:17:25;;;;;;;2.20;1.70;;;3.00;99.90;;;;;;5046702;28;20154;-57
2022/02/20 04:19:51;;;;;;;1.90;1.63;;;3.00;99.90;;;;;;5029720;28;20088;-61
2022/02/20 04:22:17;;;;;;;4.85;1.80;;;3.00;99.90;;;;;;5029393;28;20471;-52
2022/02/20 04:24:43;;;;;;;2.15;1.67;;;3.00;99.90;;;;;;5047102;28;20045;-56
2022/02/20 04:27:09;;;;;;;2.00;1.65;;;3.00;99.90;;;;;;5047311;28;20033;-50
2022/02/20 04:29:35;;;;;;;6.00;2.03;;;3.00;99.90;;;;;;5028544;28;20067;-59
2022/02/20 04:32:01;;;;;;;2.67;1.83;;;3.00;99.90;;;;;;5029656;28;20045;-58
2022/02/20 04:34:27;;;;;;;6.28;2.03;;;3.00;99.90;;;;;;5046342;28;20510;-55
2022/02/20 04:36:53;;;;;;;1.98;1.67;;;3.00;99.90;;;;;;5029404;28;20124;-55
2022/02/20 04:39:18;;;;;;;2.72;1.75;;;3.00;99.90;;;;;;5046472;28;20501;-56
2022/02/20 04:41:44;;;;;;;6.00;2.00;;;3.00;99.90;;;;;;5012217;28;20047;-53
2022/02/20 04:44:10;;;;;;;3.22;1.60;;;3.00;99.90;;;;;;5046630;28;20526;-61
2022/02/20 04:46:36;;;;;;;1.25;1.10;;;3.00;99.90;;;;;;5046749;28;20079;-55
2022/02/20 04:49:07;;;;;;;1.10;1.10;;;3.00;99.90;;;;;;5046574;28;20048;-52
2022/02/20 04:51:34;;;;;;;3.35;1.88;;;3.00;99.90;;;;;;5045717;28;20045;-57
2022/02/20 04:54:01;;;;;;;4.97;1.45;;;3.00;99.90;;;;;;5046112;28;20041;-58
2022/02/20 04:56:27;;;;;;;2.88;1.88;;;3.00;99.90;;;;;;5027331;28;20316;-58
2022/02/20 04:58:53;;;;;;;4.80;1.65;;;3.00;99.90;;;;;;5046580;28;20483;-56
2022/02/20 05:01:19;;;;;;;2.03;1.55;;;3.00;99.90;;;;;;5028275;28;20049;-58
2022/02/20 05:03:44;;;;;;;1.95;1.73;;;3.00;99.90;;;;;;5046155;28;20445;-50
2022/02/20 05:06:10;;;;;;;1.67;1.58;;;3.00;99.90;;;;;;5029087;28;20049;-50
2022/02/20 05:08:36;;;;;;;0.50;0.47;;;3.10;99.90;;;;;;5045952;28;20469;-53
2022/02/20 05:11:02;;;;;;;2.45;1.52;;;3.10;99.90;;;;;;5014693;28;20124;-55
2022/02/20 05:13:28;;;;;;;2.05;1.50;;;3.10;99.90;;;;;;5045345;28;20178;-54
2022/02/20 05:15:54;;;;;;;1.80;1.25;;;3.00;99.90;;;;;;5028628;28;20451;-56
2022/02/20 05:18:19;;;;;;;4.20;1.90;;;3.10;99.90;;;;;;5045757;28;20527;-55
2022/02/20 05:20:54;;;;;;;3.13;2.05;;;3.10;99.90;;;;;;5046059;28;20056;-59
2022/02/20 05:23:23;;;;;;;3.08;1.42;;;3.10;99.90;;;;;;5046492;28;20095;-50
2022/02/20 05:25:50;;;;;;;2.15;1.50;;;3.10;99.90;;;;;;5027144;28;20049;-49
2022/02/20 05:28:15;;;;;;;1.20;0.75;;;3.10;99.90;;;;;;5028921;28;20126;-56
2022/02/20 05:30:42;;;;;;;2.95;1.50;;;3.20;99.90;;;;;;5045424;28;20057;-54
2022/02/20 05:33:07;;;;;;;1.75;1.00;;;3.20;99.90;;;;;;5046543;28;20037;-56
2022/02/20 05:35:33;;;;;;;1.95;1.77;;;3.20;99.90;;;;;;5027343;28;20040;-56
2022/02/20 05:37:59;;;;;;;1.33;1.30;;;3.20;99.90;;;;;;5027948;28;20498;-54
2022/02/20 05:40:25;;;;;;;1.45;1.30;;;3.20;99.90;;;;;;5011634;28;20620;-48
2022/02/20 05:42:53;;;;;;;0.80;0.60;;;3.20;99.90;;;;;;5027633;28;20047;-60
2022/02/20 05:45:19;;;;;;;3.13;1.48;;;3.30;99.90;;;;;;5028135;28;20040;-52
2022/02/20 05:47:45;;;;;;;2.10;1.02;;;3.30;99.90;;;;;;5027170;28;20064;-50
2022/02/20 05:50:11;;;;;;;2.45;2.35;;;3.30;99.90;;;;;;5046417;28;20045;-55
2022/02/20 05:52:39;;;;;;;1.35;1.30;;;3.30;99.90;;;;;;5045326;28;20517;-65
2022/02/20 05:55:06;;;;;;;5.07;3.13;;;3.30;99.90;;;;;;5045967;28;20387;-52
2022/02/20 05:57:42;;;;;;;5.50;3.42;;;3.40;99.90;;;;;;5045534;28;20040;-51
2022/02/20 06:00:09;;;;;;;10.20;4.78;;;3.40;99.90;;;;;;5045673;28;20566;-52
2022/02/20 06:02:35;;;;;;;7.78;4.47;;;3.40;99.90;;;;;;5028261;28;20037;-59
2022/02/20 06:05:01;;;;;;;3.13;2.47;;;3.50;99.90;;;;;;5044530;28;20043;-61
2022/02/20 06:07:27;;;;;;;4.00;2.80;;;3.50;99.90;;;;;;5027949;28;20437;-56
2022/02/20 06:09:53;;;;;;;3.10;1.65;;;3.50;99.90;;;;;;5017625;28;20116;-51
2022/02/20 06:12:18;;;;;;;7.05;2.38;;;3.60;99.90;;;;;;5041210;28;20072;-64
2022/02/20 06:14:44;;;;;;;1.42;1.33;;;3.60;99.90;;;;;;5007647;28;20068;-60
2022/02/20 06:17:10;;;;;;;3.42;1.90;;;3.60;99.90;;;;;;5020921;28;20414;-53
2022/02/20 06:19:38;;;;;;;3.28;1.85;;;3.60;99.90;;;;;;5028621;28;20106;-64
2022/02/20 06:22:04;;;;;;;3.58;1.85;;;3.60;99.90;;;;;;5027211;28;20066;-58
2022/02/20 06:24:30;;;;;;;1.55;1.42;;;3.60;99.90;;;;;;5027741;28;20049;-61
2022/02/20 06:26:55;;;;;;;1.75;1.08;;;3.60;99.90;;;;;;5026518;28;20077;-58
2022/02/20 06:29:21;;;;;;;3.42;1.30;;;3.60;99.90;;;;;;4993285;28;20427;-60
2022/02/20 06:31:47;;;;;;;2.35;0.98;;;3.60;99.90;;;;;;5010197;28;20053;-62
2022/02/20 06:34:13;;;;;;;2.38;0.77;;;3.60;99.90;;;;;;5027753;28;20049;-62
2022/02/20 06:36:40;;;;;;;2.83;1.15;;;3.60;99.90;;;;;;5045776;28;20120;-54
2022/02/20 06:39:07;;;;;;;1.60;0.77;;;3.60;99.90;;;;;;5026816;28;20049;-52
2022/02/20 06:41:32;;;;;;;3.83;1.50;;;3.60;99.90;;;;;;5046039;28;20154;-58
2022/02/20 06:43:58;;;;;;;5.80;1.70;;;3.60;99.90;;;;;;5026742;28;20049;-54
2022/02/20 06:46:24;;;;;;;1.08;1.00;;;3.60;99.90;;;;;;5043880;28;20434;-48
2022/02/20 06:48:49;;;;;;;3.13;0.98;;;3.60;99.90;;;;;;5037827;28;20068;-53
2022/02/20 06:51:15;;;;;;;3.35;1.42;;;3.60;99.90;;;;;;5010749;28;21488;-54
2022/02/20 06:53:41;;;;;;;6.32;2.47;;;3.70;99.90;;;;;;5027165;28;20041;-50
2022/02/20 06:56:08;;;;;;;1.65;1.08;;;3.70;99.90;;;;;;5027050;28;20142;-59
2022/02/20 06:58:34;;;;;;;0.88;0.88;;;3.70;99.90;;;;;;5027451;28;20052;-54
2022/02/20 07:00:59;;;;;;;1.75;0.82;;;3.70;99.90;;;;;;5026178;28;20045;-56
2022/02/20 07:03:25;;;;;;;6.53;1.52;;;3.70;99.90;;;;;;5045819;28;20383;-58
2022/02/20 07:05:51;;;;;;;1.70;0.60;;;3.70;99.90;;;;;;5034858;28;20085;-58
2022/02/20 07:08:17;;;;;;;3.00;1.00;;;3.70;99.90;;;;;;5042092;28;20118;-52
2022/02/20 07:10:44;;;;;;;1.90;0.70;;;3.60;99.90;;;;;;5030135;28;20550;-65
2022/02/20 07:13:09;;;;;;;3.17;0.47;;;3.70;99.90;;;;;;5028648;28;20124;-50
2022/02/20 07:15:35;;;;;;;1.02;0.98;;;3.70;99.90;;;;;;5048873;28;20167;-56
2022/02/20 07:18:01;;;;;;;0.45;0.45;;;3.70;99.90;;;;;;5047708;28;20411;-60
2022/02/20 07:20:27;;;;;;;2.40;1.08;;;3.60;99.90;;;;;;5048594;28;20068;-52
2022/02/20 07:22:53;;;;;;;0.30;0.30;;;3.60;99.90;;;;;;5029556;28;20040;-52
2022/02/20 07:25:20;;;;;;;3.03;0.98;;;3.60;99.90;;;;;;5031149;28;20080;-66
2022/02/20 07:27:53;;;;;;;5.43;1.35;;;3.60;99.90;;;;;;5029790;28;20049;-52
2022/02/20 07:30:20;;;;;;;0.57;0.57;;;3.60;99.90;;;;;;5048189;28;20052;-62
2022/02/20 07:32:46;;;;;;;0.57;0.57;;;3.60;99.90;;;;;;5047524;28;20065;-56
2022/02/20 07:35:12;;;;;;;2.17;0.73;;;3.60;99.90;;;;;;5047386;28;20044;-60
2022/02/20 07:37:38;;;;;;;3.65;0.98;;;3.60;99.90;;;;;;5030631;28;20049;-58
2022/02/20 07:40:06;;;;;;;1.95;1.13;;;3.60;99.90;;;;;;5029446;28;20052;-56
2022/02/20 07:42:32;;;;;;;1.48;0.80;;;3.70;99.90;;;;;;5014194;28;20037;-57
2022/02/20 07:44:58;;;;;;;4.50;0.70;;;3.70;99.90;;;;;;5029175;28;20087;-52
2022/02/20 07:47:23;;;;;;;1.42;0.80;;;3.70;99.90;;;;;;5030634;28;20473;-55
2022/02/20 07:49:49;;;;;;;1.77;1.15;;;3.70;99.90;;;;;;5047129;28;20044;-52
2022/02/20 07:52:15;;;;;;;5.22;1.23;;;3.70;99.90;;;;;;5029341;28;20041;-66
2022/02/20 07:54:41;;;;;;;3.38;1.55;;;3.70;99.90;;;;;;5030672;28;20079;-54
2022/02/20 07:57:06;;;;;;;5.00;1.13;;;3.70;99.90;;;;;;5001806;28;20688;-63
2022/02/20 07:59:32;;;;;;;3.63;1.48;;;3.70;99.90;;;;;;5013718;28;20037;-55
2022/02/20 08:01:58;;;;;;;3.95;1.23;;;3.80;99.90;;;;;;5026255;28;20037;-49
2022/02/20 08:04:24;;;;;;;10.00;1.73;;;3.80;99.90;;;;;;5013648;28;20045;-52
2022/02/20 08:06:51;;;;;;;3.90;1.48;;;3.80;99.90;;;;;;5046019;28;20401;-57
2022/02/20 08:09:17;;;;;;;1.65;1.23;;;3.80;99.90;;;;;;5045761;28;20433;-52
2022/02/20 08:11:43;;;;;;;6.70;1.77;;;3.80;99.90;;;;;;5045332;28;20041;-56
2022/02/20 08:14:09;;;;;;;0.93;0.80;;;3.90;99.90;;;;;;5043101;28;20478;-57
2022/02/20 08:16:35;;;;;;;3.45;1.80;;;4.00;99.90;;;;;;5047754;28;20049;-58
2022/02/20 08:19:02;;;;;;;3.22;1.60;;;4.00;99.90;;;;;;5028014;28;20049;-54
2022/02/20 08:21:28;;;;;;;1.90;1.13;;;4.00;99.90;;;;;;5029682;28;20487;-65
2022/02/20 08:23:55;;;;;;;4.00;1.63;;;4.10;99.90;;;;;;5046229;28;20529;-56
2022/02/20 08:26:22;;;;;;;3.08;0.88;;;4.10;99.90;;;;;;5029317;28;20483;-56
2022/02/20 08:28:48;;;;;;;2.55;1.20;;;4.10;99.90;;;;;;5047234;28;20044;-50
2022/02/20 08:31:14;;;;;;;2.85;1.38;;;4.20;99.90;;;;;;5021778;28;20403;-57
2022/02/20 08:33:40;;;;;;;7.28;2.70;;;4.20;99.90;;;;;;5047599;28;20053;-59
2022/02/20 08:36:09;;;;;;;4.30;1.17;;;4.30;99.90;;;;;;5046229;28;20107;-54
2022/02/20 08:38:38;;;;;;;2.42;2.25;;;4.30;99.90;;;;;;5029313;28;20047;-55
2022/02/20 08:41:04;;;;;;;3.78;2.30;;;4.40;99.90;;;;;;5027916;28;20415;-52
2022/02/20 08:43:29;;;;;;;2.38;2.17;;;4.50;99.90;;;;;;5028943;28;20048;-59
2022/02/20 08:45:56;;;;;;;3.25;2.13;;;4.40;99.90;;;;;;5026104;28;20244;-58
2022/02/20 08:48:22;;;;;;;3.80;2.55;;;4.50;99.90;;;;;;5030023;28;20045;-61
2022/02/20 08:50:47;;;;;;;9.55;3.20;;;4.60;99.90;;;;;;5030223;28;20060;-65
2022/02/20 08:53:13;;;;;;;4.28;3.50;;;4.60;99.90;;;;;;5018425;28;20029;-52
2022/02/20 08:55:39;;;;;;;7.70;3.85;;;4.70;99.90;;;;;;5029391;28;20121;-57
2022/02/20 08:58:05;;;;;;;5.32;3.17;;;4.80;99.90;;;;;;5008740;28;20128;-52
2022/02/20 09:00:31;;;;;;;7.18;3.85;;;4.90;99.90;;;;;;5028477;28;20095;-66
2022/02/20 09:02:57;;;;;;;3.25;2.95;;;5.00;99.90;;;;;;5046144;28;20394;-60
2022/02/20 09:05:22;;;;;;;3.03;1.80;;;5.10;99.90;;;;;;5029879;28;20033;-57
2022/02/20 09:07:48;;;;;;;2.72;0.90;;;5.20;99.90;;;;;;5035693;28;20442;-56
2022/02/20 09:10:14;;;;;;;2.25;2.05;;;5.20;99.90;;;;;;5013745;28;20559;-61
2022/02/20 09:12:40;;;;;;;2.95;1.35;;;5.30;99.90;;;;;;5024801;28;20044;-58
2022/02/20 09:15:09;;;;;;;5.47;2.53;;;5.30;99.90;;;;;;5007492;28;20085;-58
2022/02/20 09:17:36;;;;;;;3.28;2.05;;;5.40;99.90;;;;;;5028508;28;20061;-60
2022/02/20 09:20:03;;;;;;;2.00;1.52;;;5.50;99.90;;;;;;5029068;28;20433;-55
2022/02/20 09:22:29;;;;;;;2.28;2.08;;;5.60;99.90;;;;;;5015442;28;20090;-56
2022/02/20 09:24:55;;;;;;;1.85;1.10;;;5.70;99.90;;;;;;5009162;28;20053;-59
2022/02/20 09:27:22;;;;;;;2.83;1.70;;;5.80;99.90;;;;;;5008436;28;20057;-62
2022/02/20 09:29:48;;;;;;;1.10;1.10;;;5.90;99.90;;;;;;5026978;28;20124;-62
2022/02/20 09:32:14;;;;;;;1.55;1.42;;;6.00;99.90;;;;;;5043256;28;20583;-63
2022/02/20 09:34:39;;;;;;;0.82;0.82;;;6.10;99.90;;;;;;5033582;28;20051;-61
2022/02/20 09:37:05;;;;;;;11.73;1.80;;;6.30;99.90;;;;;;5016211;28;20033;-67
2022/02/20 09:39:32;;;;;;;1.30;1.20;;;6.30;99.90;;;;;;5027200;28;20084;-64
2022/02/20 09:41:59;;;;;;;0.65;0.65;;;6.40;99.90;;;;;;5020312;28;20064;-59
2022/02/20 09:44:26;;;;;;;1.02;0.98;;;6.50;99.90;;;;;;5035538;28;20045;-58
2022/02/20 09:46:53;;;;;;;0.75;0.75;;;6.60;99.90;;;;;;5037839;28;20072;-58
2022/02/20 09:49:27;;;;;;;2.50;1.23;;;6.70;99.90;;;;;;4998297;28;20060;-66
2022/02/20 09:51:53;;;;;;;3.30;1.40;;;6.80;99.90;;;;;;5020075;28;20049;-57
2022/02/20 09:54:19;;;;;;;5.38;2.30;;;6.90;99.90;;;;;;5026266;28;20051;-61
2022/02/20 09:56:45;;;;;;;0.82;0.70;;;7.00;99.90;;;;;;5027951;28;20040;-60
2022/02/20 09:59:10;;;;;;;3.25;1.50;;;7.10;99.90;;;;;;5045026;28;20059;-53
2022/02/20 10:02:03;;;;;;;3.88;2.13;;;7.20;99.90;;;;;;5027736;28;20434;-62
2022/02/20 10:04:43;;;;;;;1.17;1.17;;;7.40;99.90;;;;;;5035919;28;20075;-54
2022/02/20 10:07:28;;;;;;;4.95;1.35;;;7.40;99.90;;;;;;5009922;28;20128;-58
2022/02/20 10:09:55;;;;;;;5.20;1.52;;;7.50;99.90;;;;;;5014164;28;20053;-62
2022/02/20 10:12:23;;;;;;;5.30;2.40;;;7.60;99.90;;;;;;5021779;28;20049;-59
2022/02/20 10:14:49;;;;;;;7.13;2.13;;;7.70;99.90;;;;;;5042866;28;20056;-61
2022/02/20 10:17:18;;;;;;;8.10;1.63;;;7.80;99.90;;;;;;5042350;28;20072;-64
2022/02/20 10:19:54;;;;;;;12.13;1.95;;;7.90;99.90;;;;;;5028891;28;20088;-63
2022/02/20 10:22:33;;;;;;;7.97;1.27;;;8.00;99.90;;;;;;5022106;28;20419;-57
2022/02/20 10:25:10;;;;;;;15.93;2.60;;;8.10;99.90;;;;;;5041662;28;20061;-67
2022/02/20 10:27:47;;;;;;;13.98;2.17;;;8.20;99.90;;;;;;5025742;28;20318;-64
2022/02/20 10:30:23;;;;;;;8.15;1.40;;;8.20;99.90;;;;;;5024683;28;20047;-60
2022/02/20 10:33:15;;;;;;;5.05;1.35;;;8.40;99.90;;;;;;5021932;28;20087;-58
2022/02/20 10:35:48;;;;;;;7.07;1.42;;;8.50;99.90;;;;;;5042215;28;20496;-63
2022/02/20 10:38:17;;;;;;;25.90;3.30;;;8.50;99.90;;;;;;5023877;28;20049;-61
2022/02/20 10:40:51;;;;;;;11.43;1.77;;;8.50;99.90;;;;;;5024473;28;20156;-66
2022/02/20 10:43:27;;;;;;;14.95;2.17;;;8.60;99.90;;;;;;5008637;28;20044;-60
2022/02/20 10:46:16;;;;;;;7.15;1.38;;;8.70;99.90;;;;;;5023959;28;20422;-60
2022/02/20 10:48:47;;;;;;;19.15;3.83;;;8.70;99.90;;;;;;5032267;28;20045;-60
2022/02/20 10:51:18;;;;;;;17.70;2.55;;;8.70;99.90;;;;;;5027449;28;20467;-58
2022/02/20 10:53:46;;;;;;;4.10;1.17;;;8.70;99.90;;;;;;5039528;28;20114;-62
2022/02/20 10:56:18;;;;;;;11.55;2.83;;;8.80;99.90;;;;;;5028797;28;20072;-58
2022/02/20 10:58:47;;;;;;;11.30;2.28;;;8.80;99.90;;;;;;5025680;28;20495;-62
2022/02/20 11:01:24;;;;;;;38.28;5.45;;;8.90;99.90;;;;;;5043176;28;20041;-64
2022/02/20 11:03:51;;;;;;;10.43;2.22;;;8.90;99.90;;;;;;5027472;28;20063;-60
2022/02/20 11:06:18;;;;;;;18.23;3.20;;;8.90;99.90;;;;;;5022374;28;20446;-63
2022/02/20 11:08:44;;;;;;;8.18;1.42;;;8.90;99.90;;;;;;5023083;28;20044;-57
2022/02/20 11:13:58;;;;;;;9.35;2.05;;;9.00;99.90;;;;;;5022744;28;20053;-62
2022/02/20 11:16:25;;;;;;;30.25;3.58;;;9.00;99.90;;;;;;5031140;28;20049;-62
2022/02/20 11:18:55;;;;;;;19.65;4.30;;;9.10;99.90;;;;;;5023631;28;20406;-63
2022/02/20 11:21:25;;;;;;;20.33;3.67;;;9.10;99.90;;;;;;5029587;28;20048;-57
2022/02/20 11:23:51;;;;;;;;;;;9.10;99.90;;;;;;5029592;28;20048;-68
2022/02/20 11:26:17;;;;;;;29.23;3.33;;;9.10;99.90;;;;;;5026667;28;20379;-61
2022/02/20 11:28:46;;;;;;;22.15;3.70;;;9.20;99.90;;;;;;4995275;28;20084;-63
2022/02/20 11:31:12;;;;;;;13.40;3.08;;;9.20;99.90;;;;;;5037273;28;20490;-59
2022/02/20 11:33:40;;;;;;;22.25;3.88;;;9.20;99.90;;;;;;5032934;28;20049;-61
2022/02/20 11:36:06;;;;;;;13.85;2.13;;;9.20;99.90;;;;;;5026911;28;20106;-60
2022/02/20 11:38:32;;;;;;;30.85;4.82;;;9.20;99.90;;;;;;5016353;28;20438;-61
2022/02/20 11:41:11;;;;;;;26.90;3.92;;;9.20;99.90;;;;;;5013313;28;20435;-60
2022/02/20 11:43:45;;;;;;;13.18;2.88;;;9.20;99.90;;;;;;5041335;28;20052;-60
2022/02/20 11:46:20;;;;;;;22.55;3.20;;;9.20;99.90;;;;;;5024530;28;20055;-68
2022/02/20 11:49:09;;;;;;;23.58;3.60;;;9.20;99.90;;;;;;5008836;28;20064;-67
2022/02/20 11:51:35;;;;;;;16.13;3.53;;;9.20;99.90;;;;;;5016577;28;20455;-65
2022/02/20 11:54:18;;;;;;;18.08;3.17;;;9.20;99.90;;;;;;5015723;28;20068;-61
2022/02/20 11:57:05;;;;;;;17.30;4.28;;;9.20;99.90;;;;;;5027558;28;20111;-59
2022/02/20 11:59:31;;;;;;;20.23;3.20;;;9.20;99.90;;;;;;5011457;28;20132;-69
2022/02/20 12:02:08;;;;;;;16.63;3.85;;;9.30;99.90;;;;;;5036154;28;20124;-67
2022/02/20 12:04:55;;;;;;;20.38;3.15;;;9.30;99.90;;;;;;5017661;28;20049;-60
2022/02/20 12:07:31;;;;;;;19.92;3.08;;;9.30;99.90;;;;;;5045520;28;20045;-64
2022/02/20 12:10:24;;;;;;;29.50;3.63;;;9.30;99.90;;;;;;5010317;28;20507;-65
2022/02/20 12:12:58;;;;;;;11.10;2.80;;;9.40;99.90;;;;;;5009133;28;20064;-68
2022/02/20 12:15:27;;;;;;;29.58;3.97;;;9.30;99.90;;;;;;5022018;28;20060;-64
2022/02/20 12:18:00;;;;;;;18.38;3.58;;;9.30;99.90;;;;;;5021909;28;20080;-61
2022/02/20 12:21:07;;;;;;;10.35;1.85;;;9.30;99.90;;;;;;5018866;28;20052;-61
2022/02/20 12:23:36;;;;;;;26.15;5.03;;;9.40;99.90;;;;;;5018923;28;20060;-64
2022/02/20 12:26:07;;;;;;;15.43;3.25;;;9.40;99.90;;;;;;5044359;28;20120;-59
2022/02/20 12:28:41;;;;;;;16.08;2.60;;;9.40;99.90;;;;;;5028697;28;20052;-65
2022/02/20 12:31:14;;;;;;;27.35;5.78;;;9.40;99.90;;;;;;5028865;28;20493;-63
2022/02/20 12:33:46;;;;;;;16.65;3.40;;;9.30;99.90;;;;;;5025138;28;20049;-58
2022/02/20 12:36:13;;;;;;;25.00;3.70;;;9.30;99.90;;;;;;5008651;28;20041;-59
2022/02/20 12:38:51;;;;;;;20.70;3.85;;;9.40;99.90;;;;;;5010475;28;20523;-61
2022/02/20 12:41:17;;;;;;;17.70;3.85;;;9.30;99.90;;;;;;5019940;28;20069;-61
2022/02/20 12:43:54;;;;;;;14.65;2.35;;;9.30;99.90;;;;;;4993118;28;20071;-66
2022/02/20 12:46:21;;;;;;;18.48;2.25;;;9.40;99.90;;;;;;4999991;28;20096;-59
2022/02/20 12:48:50;;;;;;;20.05;3.80;;;9.40;99.90;;;;;;5046504;28;20045;-61
2022/02/20 12:51:16;;;;;;;34.30;5.72;;;9.40;99.90;;;;;;5045075;28;20095;-61
2022/02/20 12:53:44;;;;;;;31.38;4.85;;;9.40;99.90;;;;;;5028854;28;20407;-63
2022/02/20 12:56:11;;;;;;;26.65;4.53;;;9.30;99.90;;;;;;5045509;28;20069;-62
2022/02/20 12:58:51;;;;;;;30.92;4.60;;;9.30;99.90;;;;;;5028168;28;20490;-60
2022/02/20 13:01:19;;;;;;;;;;;9.30;99.90;;;;;;5012183;28;20068;-61